Nelson, Canada
Current Conditions -  °F | °C
As of 5:00 PM on Thursday 27 Nov 2014 (Local Time) from CYCG Reporting Station
Overcast Overcast  
Wind Chill: 34°   Ceiling: 3600
Heat Index: 39°   Visibility: 15mi
Dew Point: 37°   Wind: 7mph
Humidity: 93%   Direction: 150°SSE
Pressure: 29.69"   Gusts: NA
Location:  49.48°N, 117.28°W
Report Text: CYCG 280100Z 15006KT 110V170 15SM FEW004 OVC036 04/03 A2969 RMK SF1SC7 LAST OBS/NEXT 281400UTC SLP069
Loading
Personal Weather Stations






























Interactive Weather Map New forecast layout! Learn more

10-Day Weather Forecast

Advertisements
Track Severe Weather on mobile